Time;durP1;ratioP1;P1;durP2;ratioP2;P2;SDS_P1;SDS_P2;PMS_P1;PMS_P2;Temp;Humidity;BMP_temperature;BMP_pressure;BME280_temperature;BME280_humidity;BME280_pressure;Samples;Min_cycle;Max_cycle;Signal;HPM_P1;HPM_P2
2022/08/13 00:00:18;;;;;;;;;;;;;;;19.32;100.00;99371.81;5072530;28;19924;-77
2022/08/13 00:02:45;;;;;;;;;;;;;;;19.26;100.00;99362.34;5055834;28;19932;-77
2022/08/13 00:05:12;;;;;;;;;;;;;;;19.20;100.00;99358.56;5072708;28;19963;-77
2022/08/13 00:07:39;;;;;;;;;;;;;;;19.17;100.00;99360.31;5072457;28;19966;-77
2022/08/13 00:10:21;;;;;;;;;;;;;;;19.20;100.00;99359.38;5072604;28;20015;-77
2022/08/13 00:12:59;;;;;;;;;;;;;;;19.17;100.00;99357.50;5056213;28;19974;-77
2022/08/13 00:15:31;;;;;;;;;;;;;;;19.29;100.00;99352.91;5055595;28;19925;-77
2022/08/13 00:18:08;;;;;;;;;;;;;;;19.20;100.00;99342.38;5072671;28;19925;-77
2022/08/13 00:20:43;;;;;;;;;;;;;;;19.18;100.00;99339.22;5075493;28;19931;-77
2022/08/13 00:23:13;;;;;;;;;;;;;;;19.02;100.00;99335.94;5043533;28;20338;-77
2022/08/13 00:25:41;;;;;;;;;;;;;;;19.02;100.00;99339.56;5077591;28;19925;-77
2022/08/13 00:28:08;;;;;;;;;;;;;;;18.92;100.00;99329.50;5060015;28;19925;-77
2022/08/13 00:30:36;;;;;;;;;;;;;;;19.06;100.00;99331.69;5059250;28;19924;-77
2022/08/13 00:33:04;;;;;;;;;;;;;;;18.77;100.00;99339.91;5077808;28;20343;-77
2022/08/13 00:35:36;;;;;;;;;;;;;;;19.02;100.00;99333.88;5077569;28;19929;-77
2022/08/13 00:38:05;;;;;;;;;;;;;;;18.76;100.00;99329.84;5076544;28;19924;-77
2022/08/13 00:40:32;;;;;;;;;;;;;;;18.25;100.00;99334.47;5077391;28;19989;-77
2022/08/13 00:43:02;;;;;;;;;;;;;;;18.30;100.00;99333.06;5076280;28;19925;-77
2022/08/13 00:45:31;;;;;;;;;;;;;;;18.30;100.00;99333.88;5043213;28;19948;-77
2022/08/13 00:50:44;;;;;;;;;;;;;;;18.76;100.00;99327.00;5076190;28;19925;-77
2022/08/13 00:53:18;;;;;;;;;;;;;;;18.83;100.00;99326.69;5059528;28;19929;-77
2022/08/13 00:55:49;;;;;;;;;;;;;;;18.69;100.00;99321.66;5059519;28;20403;-77
2022/08/13 00:58:16;;;;;;;;;;;;;;;18.52;100.00;99323.25;5077045;28;20307;-77
2022/08/13 01:00:47;;;;;;;;;;;;;;;18.52;100.00;99325.28;5077093;28;19931;-77
2022/08/13 01:03:15;;;;;;;;;;;;;;;18.27;100.00;99326.31;5075886;28;19924;-77
2022/08/13 01:05:43;;;;;;;;;;;;;;;18.28;100.00;99325.06;5059329;28;19925;-77
2022/08/13 01:08:11;;;;;;;;;;;;;;;18.49;100.00;99321.34;5059037;28;19951;-77
2022/08/13 01:10:38;;;;;;;;;;;;;;;18.34;100.00;99319.56;5059203;28;20412;-77
2022/08/13 01:13:09;;;;;;;;;;;;;;;18.28;100.00;99316.56;5058996;28;20329;-77
2022/08/13 01:15:37;;;;;;;;;;;;;;;18.23;100.00;99314.38;5076624;28;20006;-77
2022/08/13 01:18:04;;;;;;;;;;;;;;;18.25;100.00;99309.03;5076796;28;20017;-77
2022/08/13 01:20:32;;;;;;;;;;;;;;;18.29;100.00;99312.50;5075751;28;19951;-77
2022/08/13 01:23:03;;;;;;;;;;;;;;;18.33;100.00;99307.47;5075629;28;20437;-77
2022/08/13 01:25:31;;;;;;;;;;;;;;;18.45;100.00;99306.56;5042166;28;19928;-77
2022/08/13 01:27:59;;;;;;;;;;;;;;;18.26;100.00;99310.63;5058488;28;19924;-77
2022/08/13 01:30:29;;;;;;;;;;;;;;;18.22;100.00;99307.13;5042254;28;19963;-77
2022/08/13 01:32:56;;;;;;;;;;;;;;;18.22;100.00;99301.47;5076510;28;19925;-77
2022/08/13 01:35:24;;;;;;;;;;;;;;;18.24;100.00;99309.50;5058973;28;20014;-77
2022/08/13 01:37:53;;;;;;;;;;;;;;;17.96;100.00;99306.63;5058411;28;19964;-77
2022/08/13 01:40:21;;;;;;;;;;;;;;;17.79;100.00;99308.16;5075310;28;20390;-77
2022/08/13 01:42:48;;;;;;;;;;;;;;;17.73;100.00;99309.22;5058522;28;19925;-77
2022/08/13 01:45:16;;;;;;;;;;;;;;;17.99;100.00;99313.41;5075363;28;19967;-77
2022/08/13 01:50:29;;;;;;;;;;;;;;;17.56;100.00;99305.06;5058317;28;19931;-77
2022/08/13 01:53:02;;;;;;;;;;;;;;;17.33;100.00;99303.53;5075052;28;19932;-77
2022/08/13 01:55:52;;;;;;;;;;;;;;;17.44;100.00;99309.59;5074989;28;20364;-77
2022/08/13 01:58:22;;;;;;;;;;;;;;;17.51;100.00;99308.50;5058221;28;19931;-77
2022/08/13 02:00:51;;;;;;;;;;;;;;;17.54;100.00;99307.56;5074686;28;19932;-77
2022/08/13 02:03:19;;;;;;;;;;;;;;;16.51;100.00;99306.28;5074783;28;19974;-77
2022/08/13 02:05:48;;;;;;;;;;;;;;;16.92;100.00;99306.75;5076209;28;19947;-77
2022/08/13 02:08:19;;;;;;;;;;;;;;;17.30;100.00;99309.31;5057864;28;20022;-77
2022/08/13 02:10:46;;;;;;;;;;;;;;;17.40;100.00;99308.13;5075729;28;19925;-77
2022/08/13 02:13:18;;;;;;;;;;;;;;;17.28;100.00;99306.19;5058030;28;19963;-77
2022/08/13 02:15:47;;;;;;;;;;;;;;;17.41;100.00;99301.22;5074491;28;19925;-76
2022/08/13 02:18:17;;;;;;;;;;;;;;;17.53;100.00;99295.50;5074498;28;20009;-76
2022/08/13 02:20:45;;;;;;;;;;;;;;;17.46;100.00;99301.41;5074338;28;19924;-77
2022/08/13 02:23:21;;;;;;;;;;;;;;;17.34;100.00;99304.34;5057915;28;20376;-77
2022/08/13 02:25:50;;;;;;;;;;;;;;;17.37;100.00;99304.16;5073942;28;19967;-77
2022/08/13 02:28:19;;;;;;;;;;;;;;;17.37;100.00;99304.16;5057412;28;19928;-77
2022/08/13 02:30:46;;;;;;;;;;;;;;;17.36;100.00;99293.34;5057756;28;20304;-77
2022/08/13 02:33:14;;;;;;;;;;;;;;;17.35;100.00;99303.88;5073960;28;19932;-77
2022/08/13 02:35:45;;;;;;;;;;;;;;;17.40;100.00;99302.47;5057527;28;20027;-77
2022/08/13 02:38:12;;;;;;;;;;;;;;;17.14;100.00;99298.25;5074037;28;19925;-77
2022/08/13 02:43:25;;;;;;;;;;;;;;;17.34;100.00;99296.63;5073374;28;19924;-77
2022/08/13 02:45:53;;;;;;;;;;;;;;;17.44;100.00;99297.50;5073707;28;19924;-77
2022/08/13 02:48:22;;;;;;;;;;;;;;;17.45;100.00;99293.41;5073681;28;19925;-77
2022/08/13 02:50:50;;;;;;;;;;;;;;;17.31;100.00;99291.13;5073750;28;19966;-77
2022/08/13 02:53:19;;;;;;;;;;;;;;;17.30;100.00;99284.69;5057168;28;19970;-77
2022/08/13 02:55:49;;;;;;;;;;;;;;;17.46;100.00;99278.06;5073326;28;20335;-77
2022/08/13 02:58:17;;;;;;;;;;;;;;;17.36;100.00;99288.47;5073377;28;19924;-77
2022/08/13 03:00:48;;;;;;;;;;;;;;;17.22;100.00;99285.44;5073570;28;19924;-77
2022/08/13 03:03:16;;;;;;;;;;;;;;;17.16;100.00;99292.94;5057004;28;19931;-77
2022/08/13 03:05:44;;;;;;;;;;;;;;;17.02;100.00;99287.84;5074630;28;19924;-77
2022/08/13 03:08:12;;;;;;;;;;;;;;;17.15;100.00;99285.69;5073175;28;19932;-77
2022/08/13 03:10:39;;;;;;;;;;;;;;;17.16;100.00;99287.28;5073247;28;19955;-77
2022/08/13 03:13:07;;;;;;;;;;;;;;;17.13;100.00;99288.22;5056754;28;19963;-77
2022/08/13 03:15:34;;;;;;;;;;;;;;;17.23;100.00;99278.53;5056436;28;19960;-77
2022/08/13 03:18:02;;;;;;;;;;;;;;;17.20;100.00;99276.63;5056789;28;19932;-77
2022/08/13 03:20:28;;;;;;;;;;;;;;;17.27;100.00;99276.34;5056629;28;19925;-77
2022/08/13 03:22:58;;;;;;;;;;;;;;;17.00;100.00;99279.81;5056739;28;19928;-77
2022/08/13 03:25:26;;;;;;;;;;;;;;;16.92;100.00;99280.56;5055860;28;20023;-76
2022/08/13 03:27:53;;;;;;;;;;;;;;;16.17;100.00;99285.28;5055761;28;19924;-77
2022/08/13 03:30:21;;;;;;;;;;;;;;;16.45;100.00;99282.75;5055869;28;20037;-77
2022/08/13 03:32:49;;;;;;;;;;;;;;;16.74;100.00;99278.41;5055751;28;20329;-77
2022/08/13 03:35:17;;;;;;;;;;;;;;;16.87;100.00;99281.16;5072769;28;20384;-77
2022/08/13 03:37:48;;;;;;;;;;;;;;;16.78;100.00;99278.28;5055577;28;19931;-77
2022/08/13 03:40:16;;;;;;;;;;;;;;;16.83;100.00;99274.84;5072371;28;20360;-77
2022/08/13 03:42:45;;;;;;;;;;;;;;;16.84;100.00;99270.78;5072267;28;19931;-77
2022/08/13 03:45:12;;;;;;;;;;;;;;;16.75;100.00;99267.91;5073659;28;19974;-77
2022/08/13 03:47:39;;;;;;;;;;;;;;;16.36;100.00;99265.72;5072621;28;20360;-77
2022/08/13 03:50:09;;;;;;;;;;;;;;;16.62;100.00;99272.81;5039801;28;19968;-77
2022/08/13 03:52:37;;;;;;;;;;;;;;;16.72;100.00;99260.38;5055643;28;20318;-77
2022/08/13 03:55:06;;;;;;;;;;;;;;;16.44;100.00;99265.00;5071620;28;19929;-77
2022/08/13 03:57:40;;;;;;;;;;;;;;;15.56;100.00;99272.88;5072807;28;19978;-77
2022/08/13 04:00:10;;;;;;;;;;;;;;;15.20;100.00;99273.22;5056125;28;19960;-76
2022/08/13 04:02:41;;;;;;;;;;;;;;;16.00;100.00;99266.97;5056628;28;19924;-77
2022/08/13 04:05:13;;;;;;;;;;;;;;;16.36;100.00;99265.72;5055787;28;19995;-77
2022/08/13 04:07:40;;;;;;;;;;;;;;;16.39;100.00;99265.56;5055730;28;19924;-77
2022/08/13 04:10:08;;;;;;;;;;;;;;;16.43;100.00;99257.00;5056069;28;19931;-77
2022/08/13 04:12:36;;;;;;;;;;;;;;;16.58;100.00;99260.88;5055986;28;19924;-76
2022/08/13 04:15:03;;;;;;;;;;;;;;;16.53;100.00;99259.44;5055667;28;19978;-77
2022/08/13 04:17:30;;;;;;;;;;;;;;;16.27;100.00;99263.59;5072276;28;20002;-76
2022/08/13 04:19:58;;;;;;;;;;;;;;;16.31;100.00;99266.28;5073533;28;19925;-76
2022/08/13 04:22:27;;;;;;;;;;;;;;;15.70;100.00;99252.72;5038954;28;20370;-77
2022/08/13 04:24:54;;;;;;;;;;;;;;;15.46;100.00;99257.13;5072285;28;20007;-77
2022/08/13 04:27:21;;;;;;;;;;;;;;;15.64;100.00;99260.94;5055762;28;20388;-76
2022/08/13 04:29:51;;;;;;;;;;;;;;;15.96;100.00;99257.81;5072126;28;19933;-77
2022/08/13 04:32:20;;;;;;;;;;;;;;;16.20;100.00;99250.56;5072189;28;19980;-77
2022/08/13 04:34:47;;;;;;;;;;;;;;;16.23;100.00;99255.28;5055780;28;20367;-77
2022/08/13 04:37:14;;;;;;;;;;;;;;;16.18;100.00;99252.22;5072111;28;19931;-77
2022/08/13 04:39:41;;;;;;;;;;;;;;;15.55;100.00;99255.22;5055668;28;19960;-77
2022/08/13 04:42:08;;;;;;;;;;;;;;;14.95;100.00;99256.28;5072230;28;19928;-77
2022/08/13 04:44:36;;;;;;;;;;;;;;;15.15;100.00;99256.88;5055608;28;19924;-76
2022/08/13 04:47:04;;;;;;;;;;;;;;;15.81;100.00;99250.34;5055335;28;20368;-77
2022/08/13 04:49:31;;;;;;;;;;;;;;;15.87;100.00;99254.91;5073223;28;19924;-76
2022/08/13 04:51:58;;;;;;;;;;;;;;;15.94;100.00;99249.06;5055213;28;19924;-77
2022/08/13 04:54:28;;;;;;;;;;;;;;;15.97;100.00;99252.97;5055576;28;19931;-77
2022/08/13 04:56:55;;;;;;;;;;;;;;;16.01;100.00;99242.34;5072017;28;19924;-77
2022/08/13 04:59:22;;;;;;;;;;;;;;;16.02;100.00;99243.97;5039047;28;19993;-77
2022/08/13 05:01:50;;;;;;;;;;;;;;;16.09;100.00;99241.69;5055398;28;19980;-76
2022/08/13 05:04:17;;;;;;;;;;;;;;;16.13;100.00;99245.16;5038757;28;19929;-77
2022/08/13 05:06:44;;;;;;;;;;;;;;;16.10;100.00;99250.91;5074490;28;20264;-77
2022/08/13 05:09:11;;;;;;;;;;;;;;;15.86;100.00;99247.72;5075401;28;20280;-78
2022/08/13 05:11:38;;;;;;;;;;;;;;;15.87;100.00;99243.63;5042397;28;19924;-78
2022/08/13 05:14:05;;;;;;;;;;;;;;;15.67;100.00;99247.97;5073986;28;20442;-77
2022/08/13 05:16:32;;;;;;;;;;;;;;;15.55;100.00;99254.41;5075464;28;19924;-77
2022/08/13 05:18:59;;;;;;;;;;;;;;;16.00;100.00;99244.41;5075288;28;19928;-77
2022/08/13 05:21:26;;;;;;;;;;;;;;;16.27;100.00;99243.09;5076452;28;19925;-77
2022/08/13 05:23:53;;;;;;;;;;;;;;;16.16;100.00;99244.22;5058709;28;20024;-77
2022/08/13 05:26:21;;;;;;;;;;;;;;;16.15;100.00;99247.50;5058591;28;19999;-77
2022/08/13 05:28:50;;;;;;;;;;;;;;;16.18;100.00;99244.56;5058903;28;20371;-77
2022/08/13 05:31:18;;;;;;;;;;;;;;;16.35;100.00;99255.66;5075169;28;20018;-77
2022/08/13 05:33:45;;;;;;;;;;;;;;;16.53;100.00;99247.38;5075347;28;19931;-77
2022/08/13 05:36:13;;;;;;;;;;;;;;;16.19;100.00;99254.59;5041678;28;20015;-77
2022/08/13 05:38:40;;;;;;;;;;;;;;;15.75;100.00;99252.16;5075107;28;19931;-77
2022/08/13 05:41:11;;;;;;;;;;;;;;;16.24;100.00;99254.03;5074793;28;19924;-77
2022/08/13 05:43:38;;;;;;;;;;;;;;;16.50;100.00;99251.09;5076171;28;19928;-77
2022/08/13 05:46:08;;;;;;;;;;;;;;;16.52;100.00;99245.81;5074896;28;19928;-77
2022/08/13 05:48:39;;;;;;;;;;;;;;;16.37;100.00;99248.34;5074314;28;19931;-77
2022/08/13 05:51:08;;;;;;;;;;;;;;;16.13;100.00;99250.78;5076278;28;20002;-77
2022/08/13 05:53:37;;;;;;;;;;;;;;;16.01;100.00;99245.19;5076089;28;19952;-77
2022/08/13 05:56:05;;;;;;;;;;;;;;;16.31;100.00;99247.34;5074733;28;20026;-77
2022/08/13 05:58:34;;;;;;;;;;;;;;;16.81;100.00;99249.91;5074557;28;19928;-77
2022/08/13 06:03:47;;;;;;;;;;;;;;;17.32;100.00;99239.03;5074495;28;19924;-77
2022/08/13 06:06:15;;;;;;;;;;;;;;;17.42;100.00;99232.97;5041226;28;19924;-77
2022/08/13 06:08:45;;;;;;;;;;;;;;;17.71;100.00;99232.59;5074587;28;19932;-77
2022/08/13 06:11:15;;;;;;;;;;;;;;;17.74;100.00;99240.13;5075678;28;19975;-77
2022/08/13 06:13:44;;;;;;;;;;;;;;;17.92;100.00;99237.34;5074322;28;19932;-77
2022/08/13 06:16:12;;;;;;;;;;;;;;;17.81;100.00;99237.03;5075380;28;19967;-77
2022/08/13 06:18:43;;;;;;;;;;;;;;;17.88;100.00;99242.38;5040073;28;19925;-77
2022/08/13 06:21:12;;;;;;;;;;;;;;;17.73;100.00;99241.41;5074568;28;19924;-80
2022/08/13 06:23:42;;;;;;;;;;;;;;;17.98;100.00;99240.34;5058045;28;19963;-79
2022/08/13 06:26:09;;;;;;;;;;;;;;;18.40;100.00;99233.66;5058120;28;19925;-79
2022/08/13 06:28:36;;;;;;;;;;;;;;;18.74;100.00;99236.13;5074468;28;20021;-80
2022/08/13 06:31:06;;;;;;;;;;;;;;;18.83;100.00;99230.44;5057675;28;19958;-78
2022/08/13 06:33:34;;;;;;;;;;;;;;;19.02;100.00;99231.19;5040987;28;19994;-77
2022/08/13 06:36:06;;;;;;;;;;;;;;;19.19;100.00;99227.50;5074222;28;19925;-78
2022/08/13 06:38:41;;;;;;;;;;;;;;;19.39;100.00;99230.59;5074323;28;20360;-78
2022/08/13 06:41:09;;;;;;;;;;;;;;;19.67;100.00;99228.41;5057678;28;19942;-78
2022/08/13 06:43:40;;;;;;;;;;;;;;;19.70;100.00;99227.44;5075381;28;20015;-78
2022/08/13 06:46:08;;;;;;;;;;;;;;;19.94;100.00;99219.72;5074151;28;19930;-80
2022/08/13 06:48:35;;;;;;;;;;;;;;;20.04;100.00;99218.38;5057753;28;20038;-79
2022/08/13 06:51:05;;;;;;;;;;;;;;;20.23;100.00;99207.72;5057464;28;19925;-81
2022/08/13 06:53:35;;;;;;;;;;;;;;;20.24;100.00;99209.28;5074021;28;19925;-79
2022/08/13 06:56:04;;;;;;;;;;;;;;;19.99;100.00;99221.13;5073962;28;19958;-79
2022/08/13 06:58:32;;;;;;;;;;;;;;;20.14;100.00;99216.31;5040661;28;20375;-79
2022/08/13 07:01:00;;;;;;;;;;;;;;;20.45;100.00;99214.63;5057168;28;20303;-79
2022/08/13 07:03:28;;;;;;;;;;;;;;;21.10;100.00;99207.81;5040654;28;19925;-78
2022/08/13 07:05:58;;;;;;;;;;;;;;;22.33;100.00;99209.88;5075135;28;20011;-78
2022/08/13 07:08:26;;;;;;;;;;;;;;;23.86;100.00;99205.28;5074735;28;19978;-79
2022/08/13 07:13:42;;;;;;;;;;;;;;;27.03;100.00;99191.84;5073385;28;19924;-79
2022/08/13 07:16:10;;;;;;;;;;;;;;;28.45;100.00;99174.47;5074232;28;19924;-78
2022/08/13 07:18:37;;;;;;;;;;;;;;;29.21;100.00;99174.66;5073660;28;20263;-80
2022/08/13 07:21:09;;;;;;;;;;;;;;;30.30;100.00;99166.59;5074622;28;19978;-80
2022/08/13 07:23:36;;;;;;;;;;;;;;;30.91;100.00;99163.16;5056920;28;19928;-80
2022/08/13 07:26:04;;;;;;;;;;;;;;;31.70;100.00;99164.28;5074395;28;19963;-80
2022/08/13 07:28:32;;;;;;;;;;;;;;;32.19;100.00;99158.44;5056444;28;19971;-79
2022/08/13 07:31:00;;;;;;;;;;;;;;;32.43;100.00;99161.69;5074129;28;20421;-80
2022/08/13 07:33:28;;;;;;;;;;;;;;;32.75;100.00;99159.09;5073277;28;20454;-80
2022/08/13 07:35:55;;;;;;;;;;;;;;;32.83;100.00;99162.81;5073228;28;19924;-80
2022/08/13 07:38:25;;;;;;;;;;;;;;;32.66;100.00;99150.97;5056338;28;20023;-80
2022/08/13 07:40:55;;;;;;;;;;;;;;;32.62;100.00;99156.38;5073217;28;20434;-80
2022/08/13 07:43:24;;;;;;;;;;;;;;;32.71;100.00;99152.94;5073197;28;20364;-80
2022/08/13 07:45:58;;;;;;;;;;;;;;;33.31;100.00;99146.50;5056281;28;19931;-80
2022/08/13 07:48:26;;;;;;;;;;;;;;;33.98;100.00;99148.63;5073091;28;19924;-80
2022/08/13 07:50:54;;;;;;;;;;;;;;;34.20;100.00;99147.03;5072987;28;19935;-80
2022/08/13 07:53:23;;;;;;;;;;;;;;;33.92;100.00;99148.06;5056188;28;19978;-80
2022/08/13 07:55:51;;;;;;;;;;;;;;;33.64;100.00;99156.19;5072918;28;19925;-80
2022/08/13 07:58:18;;;;;;;;;;;;;;;33.54;100.00;99158.09;5056418;28;19929;-80
2022/08/13 08:00:46;;;;;;;;;;;;;;;33.87;100.00;99151.16;5072892;28;19928;-80
2022/08/13 08:03:13;;;;;;;;;;;;;;;34.26;100.00;99159.19;5072467;28;19924;-80
2022/08/13 08:05:41;;;;;;;;;;;;;;;33.76;100.00;99161.00;5074452;28;19931;-80
2022/08/13 08:08:11;;;;;;;;;;;;;;;34.48;100.00;99158.34;5056641;28;20360;-80
2022/08/13 08:10:40;;;;;;;;;;;;;;;34.51;100.00;99157.97;5072858;28;20431;-80
2022/08/13 08:13:08;;;;;;;;;;;;;;;35.11;100.00;99159.78;5072759;28;20027;-81
2022/08/13 08:15:39;;;;;;;;;;;;;;;34.34;100.00;99159.91;5056200;28;20338;-80
2022/08/13 08:18:06;;;;;;;;;;;;;;;34.99;100.00;99155.78;5056403;28;19925;-80
2022/08/13 08:20:33;;;;;;;;;;;;;;;34.50;100.00;99155.66;5072954;28;20031;-81
2022/08/13 08:23:00;;;;;;;;;;;;;;;35.36;100.00;99149.00;5072930;28;20287;-82
2022/08/13 08:25:28;;;;;;;;;;;;;;;35.69;100.00;99147.53;5073840;28;20007;-80
2022/08/13 08:27:56;;;;;;;;;;;;;;;33.21;100.00;99159.22;5073674;28;19935;-80
2022/08/13 08:30:24;;;;;;;;;;;;;;;32.91;100.00;99160.72;5072534;28;19925;-80
2022/08/13 08:32:53;;;;;;;;;;;;;;;31.94;100.00;99157.34;5073003;28;19942;-80
2022/08/13 08:35:20;;;;;;;;;;;;;;;31.95;100.00;99162.56;5072661;28;19971;-81
2022/08/13 08:43:34;;;;;;;;;;;;;;;32.65;100.00;99172.59;5071964;28;19924;-82
2022/08/13 08:46:03;;;;;;;;;;;;;;;31.19;100.00;99174.78;5056102;28;20577;-82
2022/08/13 08:48:32;;;;;;;;;;;;;;;32.71;100.00;99176.06;5073891;28;19924;-84
2022/08/13 08:51:01;;;;;;;;;;;;;;;31.91;100.00;99173.72;5073431;28;20019;-82
2022/08/13 08:53:28;;;;;;;;;;;;;;;32.21;100.00;99170.22;5073936;28;19993;-82
2022/08/13 08:55:56;;;;;;;;;;;;;;;31.60;100.00;99179.81;5072055;28;19982;-81
2022/08/13 08:58:23;;;;;;;;;;;;;;;30.99;100.00;99178.44;5053951;28;19924;-84
2022/08/13 09:01:00;;;;;;;;;;;;;;;31.86;100.00;99177.53;5053533;28;19925;-83
2022/08/13 09:03:29;;;;;;;;;;;;;;;32.16;100.00;99182.72;5085303;28;20346;-81
2022/08/13 09:06:00;;;;;;;;;;;;;;;32.17;100.00;99179.25;5036150;28;20008;-81
2022/08/13 09:08:28;;;;;;;;;;;;;;;31.48;100.00;99187.97;5053513;28;19924;-80
2022/08/13 09:10:56;;;;;;;;;;;;;;;31.28;100.00;99185.81;5054100;28;19931;-81
2022/08/13 09:13:23;;;;;;;;;;;;;;;30.09;100.00;99183.00;5053593;28;19998;-81
2022/08/13 09:15:50;;;;;;;;;;;;;;;29.91;100.00;99186.75;5053638;28;19925;-81
2022/08/13 09:18:18;;;;;;;;;;;;;;;30.92;100.00;99171.25;5086289;28;20362;-81
2022/08/13 09:20:45;;;;;;;;;;;;;;;30.33;100.00;99177.81;5085167;28;19943;-80
2022/08/13 09:23:14;;;;;;;;;;;;;;;29.25;100.00;99172.22;5053492;28;19925;-80
2022/08/13 09:25:48;;;;;;;;;;;;;;;29.66;100.00;99181.22;5067987;28;19955;-80
2022/08/13 09:28:18;;;;;;;;;;;;;;;29.39;100.00;99170.16;5035298;28;19929;-80
2022/08/13 09:30:45;;;;;;;;;;;;;;;28.96;100.00;99167.44;5052261;28;20402;-80
2022/08/13 09:33:12;;;;;;;;;;;;;;;30.33;100.00;99171.25;5054417;28;19999;-80
2022/08/13 09:35:40;;;;;;;;;;;;;;;29.47;100.00;99163.22;5070941;28;19925;-80
2022/08/13 09:38:07;;;;;;;;;;;;;;;30.26;100.00;99166.97;5038995;28;20426;-80
2022/08/13 09:40:38;;;;;;;;;;;;;;;29.05;100.00;99169.19;5022089;28;20027;-80
2022/08/13 09:43:07;;;;;;;;;;;;;;;29.57;100.00;99163.53;5071502;28;19932;-80
2022/08/13 09:45:34;;;;;;;;;;;;;;;30.66;100.00;99161.84;5056320;28;19924;-80
2022/08/13 09:48:08;;;;;;;;;;;;;;;30.82;100.00;99155.75;5054971;28;19932;-82
2022/08/13 09:50:36;;;;;;;;;;;;;;;30.13;100.00;99160.41;5037982;28;19925;-80
2022/08/13 09:53:03;;;;;;;;;;;;;;;31.01;100.00;99164.19;5071900;28;19925;-80
2022/08/13 09:55:30;;;;;;;;;;;;;;;31.64;100.00;99149.22;5054678;28;19924;-81
2022/08/13 09:57:59;;;;;;;;;;;;;;;31.66;100.00;99143.63;5071694;28;19925;-80
2022/08/13 10:00:28;;;;;;;;;;;;;;;31.65;100.00;99150.75;5056071;28;19971;-81
2022/08/13 10:02:59;;;;;;;;;;;;;;;31.78;100.00;99152.78;5056198;28;19929;-80
2022/08/13 10:05:33;;;;;;;;;;;;;;;31.45;100.00;99148.69;5071273;28;19964;-80
2022/08/13 10:08:01;;;;;;;;;;;;;;;31.34;100.00;99148.97;5054099;28;19931;-80
2022/08/13 10:10:29;;;;;;;;;;;;;;;30.50;100.00;99148.59;5054304;28;19928;-80
2022/08/13 10:12:59;;;;;;;;;;;;;;;30.79;100.00;99135.91;5054524;28;19925;-81
2022/08/13 10:15:27;;;;;;;;;;;;;;;30.88;100.00;99135.41;5053804;28;20027;-80
2022/08/13 10:17:58;;;;;;;;;;;;;;;30.67;100.00;99137.47;5053491;28;19924;-81
2022/08/13 10:20:29;;;;;;;;;;;;;;;30.87;100.00;99136.78;5070289;28;20453;-81
2022/08/13 10:22:57;;;;;;;;;;;;;;;31.13;100.00;99134.53;5053575;28;19940;-81
2022/08/13 10:25:26;;;;;;;;;;;;;;;30.44;100.00;99133.53;5053917;28;19925;-80
2022/08/13 10:27:53;;;;;;;;;;;;;;;30.53;100.00;99133.06;5070306;28;19929;-80
2022/08/13 10:30:24;;;;;;;;;;;;;;;30.84;100.00;99123.47;5086877;28;19925;-80
2022/08/13 10:32:54;;;;;;;;;;;;;;;31.28;100.00;99128.09;5053408;28;19925;-80
2022/08/13 10:35:25;;;;;;;;;;;;;;;31.02;100.00;99123.25;5054283;28;19959;-80
2022/08/13 10:37:54;;;;;;;;;;;;;;;30.98;100.00;99119.16;5070740;28;19994;-80
2022/08/13 10:40:22;;;;;;;;;;;;;;;31.20;100.00;99115.72;5055367;28;19955;-80
2022/08/13 10:42:53;;;;;;;;;;;;;;;30.26;100.00;99117.97;5087410;28;19925;-80
2022/08/13 10:45:23;;;;;;;;;;;;;;;30.93;100.00;99109.31;5055261;28;19998;-80
2022/08/13 10:47:52;;;;;;;;;;;;;;;30.95;100.00;99105.88;5087639;28;19925;-80
2022/08/13 10:50:21;;;;;;;;;;;;;;;30.82;100.00;99108.81;5055285;28;19924;-80
2022/08/13 10:52:48;;;;;;;;;;;;;;;30.72;100.00;99113.47;5053916;28;19928;-80
2022/08/13 10:55:18;;;;;;;;;;;;;;;30.59;100.00;99119.31;5055280;28;19924;-80
2022/08/13 10:57:45;;;;;;;;;;;;;;;30.41;100.00;99111.59;5055635;28;20445;-81
2022/08/13 11:00:14;;;;;;;;;;;;;;;30.18;100.00;99113.38;5086936;28;20332;-80
2022/08/13 11:02:41;;;;;;;;;;;;;;;30.69;100.00;99105.94;5070022;28;19929;-80
2022/08/13 11:05:09;;;;;;;;;;;;;;;31.14;100.00;99110.09;5053417;28;19925;-80
2022/08/13 11:07:36;;;;;;;;;;;;;;;29.88;100.00;99101.47;5086565;28;19929;-80
2022/08/13 11:10:05;;;;;;;;;;;;;;;29.67;100.00;99104.25;5070226;28;20280;-80
2022/08/13 11:12:33;;;;;;;;;;;;;;;30.67;100.00;99102.88;5054847;28;19924;-80
2022/08/13 11:15:01;;;;;;;;;;;;;;;30.70;100.00;99093.09;5069911;28;19925;-80
2022/08/13 11:17:28;;;;;;;;;;;;;;;30.99;100.00;99091.88;5053753;28;19925;-81
2022/08/13 11:19:56;;;;;;;;;;;;;;;31.59;100.00;99082.94;5086550;28;19939;-80
2022/08/13 11:22:28;;;;;;;;;;;;;;;31.67;100.00;99089.53;5053069;28;20000;-80
2022/08/13 11:24:56;;;;;;;;;;;;;;;30.37;100.00;99085.25;5069329;28;19956;-80
2022/08/13 11:27:23;;;;;;;;;;;;;;;31.29;100.00;99086.41;5053491;28;20348;-81
2022/08/13 11:29:52;;;;;;;;;;;;;;;30.51;100.00;99083.84;5086873;28;20028;-81
2022/08/13 11:32:46;;;;;;;;;;;;;;;31.28;100.00;99088.50;5086410;28;19925;-81
2022/08/13 11:36:02;;;;;;;;;;;;;;;31.90;100.00;99091.25;5012366;28;19973;-80
2022/08/13 11:38:29;;;;;;;;;;;;;;;32.39;100.00;99077.44;4996013;28;20320;-80
2022/08/13 11:40:57;;;;;;;;;;;;;;;32.43;100.00;99072.03;4996134;28;20016;-81
2022/08/13 11:43:27;;;;;;;;;;;;;;;31.48;100.00;99081.13;5012404;28;20404;-80
2022/08/13 11:45:56;;;;;;;;;;;;;;;31.71;100.00;99073.41;5012199;28;19926;-81
2022/08/13 11:48:23;;;;;;;;;;;;;;;31.98;100.00;99074.72;4996077;28;20361;-81
2022/08/13 11:50:51;;;;;;;;;;;;;;;32.23;100.00;99072.16;5012052;28;20422;-81
2022/08/13 11:53:18;;;;;;;;;;;;;;;32.62;100.00;99058.03;5012184;28;20305;-82
2022/08/13 11:55:45;;;;;;;;;;;;;;;32.57;100.00;99064.75;5011889;28;19930;-82
2022/08/13 11:58:13;;;;;;;;;;;;;;;32.24;100.00;99051.34;4996295;28;20036;-82
2022/08/13 12:00:42;;;;;;;;;;;;;;;31.93;100.00;99061.22;4995793;28;19947;-80
2022/08/13 12:03:09;;;;;;;;;;;;;;;32.20;100.00;99062.47;5012136;28;19976;-80
2022/08/13 12:05:37;;;;;;;;;;;;;;;32.02;100.00;99063.56;5011533;28;19929;-80
2022/08/13 12:08:22;;;;;;;;;;;;;;;32.33;100.00;99058.69;5012206;28;19925;-82
2022/08/13 12:10:49;;;;;;;;;;;;;;;32.46;100.00;99052.78;5012676;28;19927;-82
2022/08/13 12:13:16;;;;;;;;;;;;;;;32.50;100.00;99045.28;5064163;28;20361;-82
2022/08/13 12:15:44;;;;;;;;;;;;;;;32.05;100.00;99045.09;5054062;28;20380;-82
2022/08/13 12:18:16;;;;;;;;;;;;;;;32.58;100.00;99034.47;5057101;28;19924;-82
2022/08/13 12:20:43;;;;;;;;;;;;;;;31.79;100.00;99042.44;5040569;28;20431;-81
2022/08/13 12:23:13;;;;;;;;;;;;;;;31.99;100.00;99035.81;5056879;28;19948;-80
2022/08/13 12:25:40;;;;;;;;;;;;;;;32.43;100.00;99028.66;5056303;28;20006;-82
2022/08/13 12:28:16;;;;;;;;;;;;;;;32.32;100.00;99031.91;5057598;28;20383;-81
2022/08/13 12:30:44;;;;;;;;;;;;;;;32.37;100.00;99022.28;5090107;28;19925;-81
2022/08/13 12:33:11;;;;;;;;;;;;;;;32.08;100.00;99020.81;5066304;28;19925;-81
2022/08/13 12:35:38;;;;;;;;;;;;;;;32.24;100.00;99021.66;5077113;28;19929;-81
2022/08/13 12:38:06;;;;;;;;;;;;;;;32.60;100.00;99020.22;5077884;28;19974;-81
2022/08/13 12:40:52;;;;;;;;;;;;;;;32.54;100.00;99022.53;5076772;28;19924;-81
2022/08/13 12:43:19;;;;;;;;;;;;;;;32.07;100.00;99025.06;5077177;28;20012;-81
2022/08/13 12:45:46;;;;;;;;;;;;;;;31.33;100.00;99024.06;5076278;28;19928;-80
2022/08/13 12:48:21;;;;;;;;;;;;;;;32.03;100.00;99024.69;5059658;28;19924;-81
2022/08/13 12:50:48;;;;;;;;;;;;;;;32.07;100.00;99007.72;5059677;28;19925;-81
2022/08/13 12:53:16;;;;;;;;;;;;;;;32.45;100.00;99014.41;5076953;28;20023;-81
2022/08/13 12:55:53;;;;;;;;;;;;;;;32.74;100.00;99018.72;5076364;28;19931;-82
2022/08/13 12:58:23;;;;;;;;;;;;;;;32.67;100.00;98999.22;5076268;28;19924;-81
2022/08/13 13:00:53;;;;;;;;;;;;;;;32.57;100.00;99003.25;5076309;28;19947;-81
2022/08/13 13:03:20;;;;;;;;;;;;;;;32.68;100.00;99002.88;5075917;28;20360;-81